Time;durP1;ratioP1;P1;durP2;ratioP2;P2;SDS_P1;SDS_P2;PMS_P1;PMS_P2;Temp;Humidity;BMP_temperature;BMP_pressure;BME280_temperature;BME280_humidity;BME280_pressure;Samples;Min_cycle;Max_cycle;Signal;HPM_P1;HPM_P2
2024/01/19 00:01:38;;;;;;;12.82;2.70;;;;;;;1.87;71.04;101039.22;7423321;19;20031;-63
2024/01/19 00:04:07;;;;;;;7.15;2.10;;;;;;;1.80;71.54;101041.19;7424955;19;20020;-63
2024/01/19 00:06:41;;;;;;;9.05;2.10;;;;;;;1.81;71.54;101045.50;7426615;19;20014;-64
2024/01/19 00:09:10;;;;;;;5.85;1.92;;;;;;;1.76;71.67;101041.34;7425242;19;20022;-63
2024/01/19 00:11:39;;;;;;;6.63;1.90;;;;;;;1.70;71.92;101051.06;7422836;19;20039;-62
2024/01/19 00:14:08;;;;;;;6.45;1.80;;;;;;;1.71;72.02;101050.16;7424827;19;20550;-59
2024/01/19 00:16:42;;;;;;;8.40;2.13;;;;;;;1.81;71.47;101042.06;7422627;19;20022;-60
2024/01/19 00:19:11;;;;;;;6.87;2.10;;;;;;;1.71;71.79;101050.16;7426871;19;20011;-58
2024/01/19 00:21:45;;;;;;;7.13;2.10;;;;;;;1.65;71.86;101041.69;7421450;19;20041;-60
2024/01/19 00:24:14;;;;;;;7.95;2.10;;;;;;;1.58;72.04;101043.66;7424377;19;20031;-60
2024/01/19 00:26:44;;;;;;;10.85;2.22;;;;;;;1.53;72.51;101040.34;7425906;19;20014;-60
2024/01/19 00:29:13;;;;;;;7.82;1.80;;;;;;;1.70;72.24;101045.00;7425853;19;20018;-59
2024/01/19 00:31:45;;;;;;;4.80;1.90;;;;;;;1.66;71.67;101031.19;7411277;19;20517;-60
2024/01/19 00:34:15;;;;;;;7.03;1.75;;;;;;;1.74;71.85;101036.16;7397333;19;20515;-58
2024/01/19 00:36:44;;;;;;;4.78;1.45;;;;;;;1.71;71.84;101034.50;7395423;19;20033;-59
2024/01/19 00:39:14;;;;;;;6.30;1.70;;;;;;;1.75;71.90;101037.88;7396888;19;20035;-60
2024/01/19 00:41:43;;;;;;;5.57;1.60;;;;;;;1.80;71.65;101037.75;7391925;19;20524;-60
2024/01/19 00:44:12;;;;;;;5.63;1.60;;;;;;;1.84;71.63;101036.72;7395954;19;20010;-60
2024/01/19 00:46:41;;;;;;;8.40;1.50;;;;;;;1.74;72.03;101040.53;7395394;19;20015;-61
2024/01/19 00:49:09;;;;;;;5.35;1.60;;;;;;;1.79;72.37;101046.44;7396052;19;20453;-60
2024/01/19 00:51:40;;;;;;;7.20;1.48;;;;;;;1.73;72.27;101065.78;7393748;19;20077;-60
2024/01/19 00:54:09;;;;;;;7.95;1.70;;;;;;;1.81;72.48;101062.94;7396565;19;20011;-62
2024/01/19 00:56:39;;;;;;;6.03;1.50;;;;;;;1.84;72.17;101066.31;7396282;19;20122;-60
2024/01/19 00:59:08;;;;;;;7.38;1.65;;;;;;;1.89;72.37;101076.59;7396591;19;20086;-59
2024/01/19 01:01:42;;;;;;;7.50;2.70;;;;;;;1.69;72.75;101078.09;7392720;19;20038;-61
2024/01/19 01:04:12;;;;;;;7.35;1.42;;;;;;;1.65;73.18;101088.69;7396057;19;20383;-58
2024/01/19 01:06:40;;;;;;;5.97;1.58;;;;;;;1.66;73.44;101103.44;7396101;19;20014;-59
2024/01/19 01:09:11;;;;;;;5.97;1.70;;;;;;;1.63;73.53;101093.09;7394300;19;20328;-60
2024/01/19 01:11:40;;;;;;;5.38;1.25;;;;;;;1.74;73.20;101085.78;7393279;19;20016;-58
2024/01/19 01:14:09;;;;;;;7.68;1.60;;;;;;;1.84;72.82;101096.78;7396155;19;20027;-60
2024/01/19 01:16:42;;;;;;;3.55;1.17;;;;;;;1.81;72.77;101094.25;7395397;19;20089;-59
2024/01/19 01:19:11;;;;;;;5.20;1.45;;;;;;;1.80;72.81;101096.03;7395880;19;20018;-61
2024/01/19 01:21:40;;;;;;;3.53;1.20;;;;;;;1.76;72.76;101099.63;7390565;19;20010;-60
2024/01/19 01:24:09;;;;;;;5.85;1.33;;;;;;;1.79;73.04;101101.28;7393798;19;20037;-61
2024/01/19 01:26:39;;;;;;;5.03;1.58;;;;;;;1.86;72.65;101106.25;7395330;19;20018;-62
2024/01/19 01:29:08;;;;;;;5.40;1.50;;;;;;;1.98;72.33;101099.78;7395327;19;20490;-63
2024/01/19 01:31:39;;;;;;;5.90;1.33;;;;;;;2.03;72.21;101115.31;7392010;19;20066;-63
2024/01/19 01:34:08;;;;;;;4.70;1.60;;;;;;;2.14;72.06;101131.50;7393053;19;20026;-63
2024/01/19 01:36:39;;;;;;;5.20;1.30;;;;;;;2.08;72.11;101137.75;7394637;19;20018;-63
2024/01/19 01:39:11;;;;;;;7.45;1.52;;;;;;;2.05;72.33;101134.41;7394591;19;20124;-63
2024/01/19 01:41:44;;;;;;;5.65;1.25;;;;;;;2.02;72.57;101127.50;7390429;19;20383;-63
2024/01/19 01:44:15;;;;;;;7.78;1.30;;;;;;;1.91;72.88;101130.47;7392625;19;20038;-63
2024/01/19 01:46:45;;;;;;;7.28;1.50;;;;;;;1.97;72.58;101129.41;7394319;19;20343;-63
2024/01/19 01:49:18;;;;;;;4.72;1.35;;;;;;;1.91;72.98;101132.25;7392753;19;20018;-64
2024/01/19 01:51:49;;;;;;;6.25;1.30;;;;;;;1.93;72.73;101138.25;7392941;19;20021;-64
2024/01/19 01:54:20;;;;;;;6.15;1.38;;;;;;;1.99;72.64;101134.63;7394171;19;20042;-64
2024/01/19 01:56:52;;;;;;;7.00;1.60;;;;;;;1.86;72.96;101136.75;7394632;19;20014;-63
2024/01/19 01:59:22;;;;;;;6.75;1.65;;;;;;;1.84;73.24;101141.16;7395045;19;20034;-61
2024/01/19 02:01:54;;;;;;;8.63;1.80;;;;;;;1.89;72.74;101119.22;7392153;19;20038;-60
2024/01/19 02:04:25;;;;;;;5.18;1.60;;;;;;;1.90;72.90;101127.91;7395270;19;20027;-59
2024/01/19 02:06:57;;;;;;;2.75;1.08;;;;;;;1.90;72.65;101140.97;7394469;19;20031;-60
2024/01/19 02:09:37;;;;;;;5.65;1.40;;;;;;;1.77;73.12;101143.13;7392827;19;20054;-61
2024/01/19 02:12:07;;;;;;;2.85;1.05;;;;;;;1.81;73.27;101138.66;7396357;19;20070;-60
2024/01/19 02:14:38;;;;;;;3.95;1.52;;;;;;;1.86;73.27;101129.75;7399592;19;20081;-62
2024/01/19 02:17:09;;;;;;;6.97;1.52;;;;;;;1.81;72.96;101133.44;7396185;19;20026;-61
2024/01/19 02:19:39;;;;;;;6.28;1.45;;;;;;;1.72;73.44;101129.34;7393823;19;20029;-57
2024/01/19 02:22:10;;;;;;;7.28;1.30;;;;;;;1.64;73.68;101144.38;7391986;19;20015;-60
2024/01/19 02:24:40;;;;;;;4.72;1.40;;;;;;;1.62;73.76;101148.81;7393534;19;20106;-60
2024/01/19 02:27:11;;;;;;;4.32;1.30;;;;;;;1.63;73.84;101143.53;7393396;19;20078;-61
2024/01/19 02:29:49;;;;;;;7.40;1.30;;;;;;;1.74;73.29;101153.66;7393012;19;20015;-60
2024/01/19 02:32:20;;;;;;;7.93;1.73;;;;;;;1.66;73.39;101147.81;7393478;19;20029;-59
2024/01/19 02:34:51;;;;;;;6.85;1.35;;;;;;;1.68;73.45;101143.41;7393730;19;20014;-60
2024/01/19 02:37:23;;;;;;;5.50;1.70;;;;;;;1.62;73.16;101140.97;7391654;19;20478;-60
2024/01/19 02:39:54;;;;;;;6.82;1.33;;;;;;;1.71;73.17;101154.56;7391130;19;20022;-60
2024/01/19 02:42:23;;;;;;;4.28;1.15;;;;;;;1.70;73.20;101158.09;7390391;19;20030;-60
2024/01/19 02:44:51;;;;;;;5.38;1.38;;;;;;;1.57;73.50;101159.38;7391748;19;20026;-60
2024/01/19 02:47:19;;;;;;;3.95;1.25;;;;;;;1.53;73.38;101155.16;7391780;19;20023;-61
2024/01/19 02:49:48;;;;;;;4.35;1.60;;;;;;;1.51;73.29;101154.34;7391934;19;20022;-60
2024/01/19 02:52:16;;;;;;;4.70;1.33;;;;;;;1.53;73.16;101152.56;7392847;19;20031;-59
2024/01/19 02:54:47;;;;;;;5.93;1.40;;;;;;;1.57;72.88;101158.53;7390624;19;20493;-61
2024/01/19 02:57:15;;;;;;;5.45;1.38;;;;;;;1.66;72.75;101161.72;7391171;19;20474;-61
2024/01/19 02:59:45;;;;;;;5.70;1.23;;;;;;;1.67;72.46;101163.41;7392244;19;20026;-61
2024/01/19 03:02:15;;;;;;;4.40;1.20;;;;;;;1.65;72.67;101161.75;7390023;19;20011;-61
2024/01/19 03:04:45;;;;;;;4.15;1.20;;;;;;;1.58;73.01;101155.88;7392487;19;20018;-63
2024/01/19 03:07:16;;;;;;;4.97;1.10;;;;;;;1.56;72.66;101162.88;7390814;19;20929;-63
2024/01/19 03:09:46;;;;;;;4.13;1.30;;;;;;;1.42;72.76;101150.25;7390220;19;20019;-61
2024/01/19 03:12:17;;;;;;;6.90;1.50;;;;;;;1.43;73.27;101161.53;7392532;19;20050;-61
2024/01/19 03:14:48;;;;;;;9.05;1.60;;;;;;;1.43;73.46;101164.16;7392237;19;20011;-60
2024/01/19 03:17:19;;;;;;;6.43;1.50;;;;;;;1.41;73.17;101155.50;7391872;19;20025;-60
2024/01/19 03:19:50;;;;;;;6.32;1.42;;;;;;;1.59;73.07;101168.00;7391401;19;20028;-60
2024/01/19 03:22:20;;;;;;;5.95;1.40;;;;;;;1.70;72.59;101163.31;7390818;19;20022;-60
2024/01/19 03:24:50;;;;;;;6.00;1.30;;;;;;;1.40;73.17;101174.66;7391666;19;20026;-61
2024/01/19 03:27:20;;;;;;;6.10;1.20;;;;;;;1.47;73.29;101168.38;7391788;19;20025;-58
2024/01/19 03:29:51;;;;;;;4.90;1.48;;;;;;;1.66;72.93;101185.19;7390695;19;20033;-59
2024/01/19 03:32:21;;;;;;;6.47;2.13;;;;;;;1.61;72.73;101184.50;7390015;19;20027;-60
2024/01/19 03:34:53;;;;;;;6.30;2.10;;;;;;;1.62;73.02;101183.59;7390073;19;20025;-59
2024/01/19 03:37:23;;;;;;;6.25;1.63;;;;;;;1.71;73.19;101200.72;7391658;19;20023;-60
2024/01/19 03:39:54;;;;;;;3.72;1.48;;;;;;;1.60;73.78;101205.41;7390529;19;20351;-59
2024/01/19 03:42:22;;;;;;;5.78;1.23;;;;;;;1.71;73.89;101221.59;7388107;19;20379;-60
2024/01/19 03:44:51;;;;;;;4.93;1.20;;;;;;;1.63;77.89;101214.00;7391236;19;20014;-59
2024/01/19 03:47:20;;;;;;;3.70;1.20;;;;;;;1.58;81.44;101213.28;7391591;19;20046;-59
2024/01/19 03:49:49;;;;;;;5.97;1.15;;;;;;;1.54;82.06;101216.88;7388515;19;20022;-59
2024/01/19 03:52:18;;;;;;;4.38;1.08;;;;;;;1.51;83.20;101208.28;7390788;19;20420;-61
2024/01/19 03:54:48;;;;;;;4.78;1.00;;;;;;;1.47;83.03;101212.75;7390945;19;20026;-61
2024/01/19 03:57:17;;;;;;;5.93;1.33;;;;;;;1.43;83.06;101193.69;7391101;19;20026;-61
2024/01/19 03:59:46;;;;;;;2.92;0.90;;;;;;;1.36;82.82;101209.56;7389988;19;20022;-62
2024/01/19 04:02:14;;;;;;;5.13;1.08;;;;;;;1.40;82.11;101195.53;7389367;19;20063;-62
2024/01/19 04:04:44;;;;;;;3.40;0.90;;;;;;;1.40;81.98;101196.41;7389759;19;20026;-62
2024/01/19 04:07:12;;;;;;;3.55;0.98;;;;;;;1.43;82.10;101211.97;7392318;19;20019;-62
2024/01/19 04:09:42;;;;;;;3.15;0.70;;;;;;;1.25;82.32;101199.44;7397704;19;20019;-62
2024/01/19 04:12:15;;;;;;;4.50;0.88;;;;;;;1.40;82.03;101216.41;7397751;19;20038;-61
2024/01/19 04:14:46;;;;;;;2.80;0.88;;;;;;;1.47;82.12;101228.41;7397703;19;20418;-62
2024/01/19 04:17:17;;;;;;;4.18;1.10;;;;;;;1.40;82.03;101226.84;7397905;19;20015;-62
2024/01/19 04:19:47;;;;;;;3.63;0.77;;;;;;;1.49;81.46;101225.72;7396705;19;20028;-62
2024/01/19 04:22:18;;;;;;;3.90;0.95;;;;;;;1.56;81.13;101228.13;7395956;19;20029;-61
2024/01/19 04:24:49;;;;;;;2.42;0.77;;;;;;;1.46;81.04;101227.53;7397804;19;20018;-59
2024/01/19 04:27:19;;;;;;;4.72;1.02;;;;;;;1.51;81.03;101243.06;7397217;19;20022;-59
2024/01/19 04:29:49;;;;;;;4.03;0.90;;;;;;;1.56;80.95;101243.78;7396507;19;20046;-59
2024/01/19 04:32:18;;;;;;;3.90;0.73;;;;;;;1.57;80.64;101245.50;7397325;19;20011;-60
2024/01/19 04:34:47;;;;;;;6.35;1.13;;;;;;;1.61;80.53;101241.06;7397070;19;20014;-59
2024/01/19 04:37:16;;;;;;;4.78;0.75;;;;;;;1.56;80.22;101237.72;7395636;19;20047;-59
2024/01/19 04:39:46;;;;;;;4.03;0.93;;;;;;;1.57;80.17;101248.13;7396231;19;20359;-59
2024/01/19 04:42:14;;;;;;;2.53;0.88;;;;;;;1.57;79.97;101250.72;7395562;19;20067;-58
2024/01/19 04:44:44;;;;;;;6.35;1.10;;;;;;;1.69;79.83;101252.97;7395236;19;20023;-58
2024/01/19 04:47:12;;;;;;;3.10;0.80;;;;;;;1.75;79.37;101265.00;7394983;19;20348;-59
2024/01/19 04:49:41;;;;;;;3.80;0.85;;;;;;;1.79;79.37;101266.59;7394881;19;20022;-59
2024/01/19 04:52:09;;;;;;;2.50;0.70;;;;;;;1.73;79.51;101260.72;7396199;19;20011;-58
2024/01/19 04:54:41;;;;;;;3.10;0.90;;;;;;;1.78;79.42;101269.28;7396532;19;20006;-56
2024/01/19 04:57:11;;;;;;;1.45;0.50;;;;;;;1.83;79.11;101264.75;7396663;19;20023;-59
2024/01/19 04:59:41;;;;;;;1.60;0.60;;;;;;;1.83;78.84;101272.59;7396194;19;20015;-56
2024/01/19 05:02:12;;;;;;;4.28;1.00;;;;;;;1.92;78.72;101278.41;7394816;19;20010;-59
2024/01/19 05:04:44;;;;;;;3.17;0.80;;;;;;;1.88;78.73;101287.25;7395952;19;20014;-58
2024/01/19 05:07:15;;;;;;;3.15;1.05;;;;;;;1.81;79.19;101271.81;7396715;19;20070;-59
2024/01/19 05:09:46;;;;;;;3.53;0.90;;;;;;;1.76;78.84;101284.16;7394238;19;20093;-59
2024/01/19 05:12:16;;;;;;;2.90;0.80;;;;;;;1.68;79.07;101289.59;7396815;19;20015;-60
2024/01/19 05:14:46;;;;;;;3.05;0.73;;;;;;;1.57;79.36;101295.09;7394630;19;20015;-60
2024/01/19 05:17:15;;;;;;;4.55;1.13;;;;;;;1.71;79.34;101295.53;7396236;19;20018;-60
2024/01/19 05:19:47;;;;;;;3.35;0.85;;;;;;;1.78;78.73;101305.81;7393528;19;20046;-59
2024/01/19 05:22:15;;;;;;;4.85;1.20;;;;;;;1.69;78.43;101299.13;7395329;19;20024;-59
2024/01/19 05:24:44;;;;;;;2.90;0.93;;;;;;;1.64;79.07;101312.31;7396444;19;20021;-60
2024/01/19 05:27:13;;;;;;;3.22;0.80;;;;;;;1.71;78.54;101310.34;7395174;19;20038;-59
2024/01/19 05:29:43;;;;;;;6.53;1.20;;;;;;;1.66;78.34;101314.88;7394988;19;20502;-61
2024/01/19 05:32:11;;;;;;;6.25;1.20;;;;;;;1.56;78.70;101321.22;7393817;19;20028;-61
2024/01/19 05:34:43;;;;;;;4.78;1.35;;;;;;;1.54;78.66;101316.06;7395515;19;20098;-62
2024/01/19 05:37:13;;;;;;;4.38;1.23;;;;;;;1.47;78.57;101332.78;7394098;19;20014;-62
2024/01/19 05:39:44;;;;;;;5.72;1.33;;;;;;;1.43;78.39;101316.34;7394579;19;20027;-61
2024/01/19 05:42:14;;;;;;;4.63;1.10;;;;;;;1.37;78.71;101326.06;7393966;19;20051;-61
2024/01/19 05:44:45;;;;;;;6.38;1.40;;;;;;;1.33;78.96;101324.44;7395336;19;20022;-63
2024/01/19 05:47:18;;;;;;;4.50;1.27;;;;;;;1.28;78.51;101334.16;7393458;19;20046;-64
2024/01/19 05:49:48;;;;;;;8.35;1.30;;;;;;;1.27;79.14;101335.91;7394093;19;20029;-63
2024/01/19 05:52:18;;;;;;;6.03;1.50;;;;;;;1.32;78.65;101339.25;7395114;19;20022;-63
2024/01/19 05:54:47;;;;;;;3.90;1.35;;;;;;;1.29;78.40;101333.25;7395111;19;20014;-60
2024/01/19 05:57:15;;;;;;;7.18;1.67;;;;;;;1.28;78.29;101350.66;7394810;19;20022;-63
2024/01/19 05:59:45;;;;;;;3.60;1.30;;;;;;;1.32;78.33;101359.28;7392266;19;20019;-63
2024/01/19 06:02:13;;;;;;;6.15;1.40;;;;;;;1.55;77.88;101362.13;7393567;19;20022;-60
2024/01/19 06:04:45;;;;;;;4.30;1.40;;;;;;;1.63;77.19;101373.22;7392932;19;20362;-59
2024/01/19 06:07:15;;;;;;;7.85;1.98;;;;;;;1.65;77.16;101386.25;7393743;19;20364;-60
2024/01/19 06:09:46;;;;;;;5.32;1.67;;;;;;;1.61;77.18;101395.91;7392786;19;20026;-58
2024/01/19 06:12:16;;;;;;;3.50;1.70;;;;;;;1.64;77.53;101398.44;7395283;19;20023;-58
2024/01/19 06:14:46;;;;;;;3.20;1.58;;;;;;;1.53;77.93;101400.47;7395205;19;20357;-57
2024/01/19 06:17:19;;;;;;;2.78;1.55;;;;;;;1.50;78.56;101413.59;7394656;19;20486;-57
2024/01/19 06:19:51;;;;;;;6.30;1.80;;;;;;;1.66;79.13;101396.63;7392558;19;20336;-59
2024/01/19 06:22:22;;;;;;;5.38;1.75;;;;;;;1.69;79.21;101407.00;7394041;19;20014;-61
2024/01/19 06:24:52;;;;;;;6.90;1.90;;;;;;;1.60;79.22;101408.97;7393958;19;20352;-60
2024/01/19 06:27:23;;;;;;;5.40;1.80;;;;;;;1.32;80.10;101414.06;7394035;19;20034;-59
2024/01/19 06:29:54;;;;;;;6.90;1.95;;;;;;;1.25;80.42;101412.50;7391819;19;20029;-60
2024/01/19 06:32:24;;;;;;;5.55;2.08;;;;;;;1.30;80.40;101421.94;7392123;19;20018;-60
2024/01/19 06:34:55;;;;;;;8.40;2.20;;;;;;;1.24;79.99;101424.69;7397066;19;20013;-59
2024/01/19 06:37:25;;;;;;;5.32;1.75;;;;;;;1.38;80.02;101419.13;7389478;19;20032;-60
2024/01/19 06:39:56;;;;;;;4.60;1.95;;;;;;;1.25;79.62;101410.72;7390161;19;20022;-60
2024/01/19 06:42:29;;;;;;;6.97;1.95;;;;;;;1.27;79.54;101419.38;7393218;19;20373;-56
2024/01/19 06:44:59;;;;;;;5.88;2.10;;;;;;;1.23;79.70;101424.72;7391406;19;20045;-59
2024/01/19 06:47:39;;;;;;;6.35;1.95;;;;;;;1.27;79.62;101426.38;7395699;19;20018;-56
2024/01/19 06:50:11;;;;;;;7.07;2.13;;;;;;;1.31;79.27;101434.06;7394831;19;20014;-61
2024/01/19 06:52:46;;;;;;;7.65;2.40;;;;;;;1.22;79.14;101439.50;7395609;19;20078;-61
2024/01/19 06:55:16;;;;;;;5.40;2.30;;;;;;;1.16;79.30;101450.94;7394169;19;20078;-60
2024/01/19 06:57:45;;;;;;;8.40;2.15;;;;;;;1.11;79.45;101452.81;7391861;19;20641;-62
2024/01/19 07:00:18;;;;;;;8.38;2.22;;;;;;;1.12;79.42;101461.50;7391383;19;20016;-61
2024/01/19 07:02:48;;;;;;;6.70;2.55;;;;;;;1.17;79.41;101464.84;7392005;19;20046;-59
2024/01/19 07:05:18;;;;;;;5.97;2.10;;;;;;;1.30;79.06;101471.50;7392610;19;20018;-60
2024/01/19 07:07:47;;;;;;;7.05;2.40;;;;;;;1.28;78.93;101481.09;7392594;19;20022;-61
2024/01/19 07:10:18;;;;;;;7.55;2.20;;;;;;;1.15;79.00;101475.31;7391251;19;20031;-59
2024/01/19 07:12:47;;;;;;;6.18;2.30;;;;;;;1.25;79.12;101477.69;7391124;19;20018;-60
2024/01/19 07:15:17;;;;;;;9.30;2.20;;;;;;;1.27;78.65;101478.53;7391034;19;20011;-59
2024/01/19 07:17:46;;;;;;;7.63;2.28;;;;;;;1.24;78.86;101486.44;7390986;19;20094;-59
2024/01/19 07:20:15;;;;;;;5.50;1.92;;;;;;;1.19;78.95;101484.78;7389411;19;20015;-58
2024/01/19 07:22:45;;;;;;;8.15;2.35;;;;;;;1.21;79.05;101482.13;7391107;19;20478;-59
2024/01/19 07:25:15;;;;;;;7.35;1.90;;;;;;;1.21;78.87;101482.97;7390703;19;20018;-60
2024/01/19 07:27:48;;;;;;;7.63;2.10;;;;;;;1.30;78.98;101489.75;7391071;19;20368;-60
2024/01/19 07:30:18;;;;;;;5.35;1.90;;;;;;;1.31;78.58;101495.84;7389050;19;20029;-60
2024/01/19 07:32:48;;;;;;;6.45;1.90;;;;;;;1.27;78.87;101497.66;7389941;19;20014;-60
2024/01/19 07:35:38;;;;;;;7.15;2.00;;;;;;;1.27;79.18;101507.25;7391682;19;20011;-58
2024/01/19 07:38:10;;;;;;;7.68;1.83;;;;;;;1.34;78.97;101514.03;7391864;19;20261;-59
2024/01/19 07:40:40;;;;;;;3.92;1.60;;;;;;;1.33;79.05;101514.91;7365423;19;20026;-57
2024/01/19 07:43:10;;;;;;;10.65;2.10;;;;;;;1.36;78.95;101520.06;7395195;19;20018;-58
2024/01/19 07:45:41;;;;;;;6.75;2.20;;;;;;;1.35;78.85;101521.81;7398767;19;20014;-59
2024/01/19 07:48:11;;;;;;;7.72;1.95;;;;;;;1.21;79.14;101521.25;7398408;19;20071;-58
2024/01/19 07:50:42;;;;;;;6.95;2.00;;;;;;;1.17;79.89;101522.22;7396583;19;20019;-58
2024/01/19 07:53:13;;;;;;;8.43;1.80;;;;;;;1.29;79.66;101528.91;7398720;19;20045;-58
2024/01/19 07:55:44;;;;;;;8.57;1.80;;;;;;;1.39;78.89;101527.81;7398768;19;20018;-58
2024/01/19 07:58:15;;;;;;;8.15;1.90;;;;;;;1.48;78.82;101527.59;7398250;19;20496;-58
2024/01/19 08:00:46;;;;;;;5.53;1.58;;;;;;;1.44;78.51;101532.03;7394368;19;20050;-59
2024/01/19 08:03:17;;;;;;;5.28;1.65;;;;;;;1.40;78.82;101539.97;7395528;19;20363;-59
2024/01/19 08:05:48;;;;;;;7.10;1.63;;;;;;;1.36;78.98;101546.16;7400943;19;20030;-57
2024/01/19 08:08:18;;;;;;;6.25;1.52;;;;;;;1.36;79.38;101547.00;7397788;19;20015;-58
2024/01/19 08:10:51;;;;;;;8.38;1.75;;;;;;;1.44;78.44;101555.50;7399571;19;20021;-58
2024/01/19 08:13:22;;;;;;;6.05;1.63;;;;;;;1.46;78.17;101551.13;7396691;19;20023;-56
2024/01/19 08:15:53;;;;;;;5.82;1.95;;;;;;;1.52;78.02;101555.34;7397888;19;20015;-58
2024/01/19 08:18:24;;;;;;;8.27;1.75;;;;;;;1.54;78.43;101564.00;7396423;19;20025;-57
2024/01/19 08:20:54;;;;;;;5.10;1.65;;;;;;;1.61;77.81;101568.19;7394050;19;20396;-58
2024/01/19 08:23:24;;;;;;;9.32;1.63;;;;;;;1.63;77.60;101570.75;7399438;19;20082;-58
2024/01/19 08:25:55;;;;;;;5.70;1.55;;;;;;;1.66;77.60;101573.28;7397829;19;20015;-55
2024/01/19 08:28:32;;;;;;;9.68;1.90;;;;;;;1.68;77.33;101569.75;7398060;19;20018;-58
2024/01/19 08:31:03;;;;;;;5.40;1.50;;;;;;;1.76;77.09;101585.25;7393125;19;20026;-57
2024/01/19 08:33:39;;;;;;;5.22;1.48;;;;;;;1.77;76.81;101588.72;7396785;19;20018;-58
2024/01/19 08:36:10;;;;;;;3.63;1.35;;;;;;;1.75;76.96;101587.88;7395963;19;20078;-57
2024/01/19 08:38:40;;;;;;;7.25;2.05;;;;;;;1.75;76.67;101591.34;7395561;19;20018;-58
2024/01/19 08:41:10;;;;;;;6.35;1.60;;;;;;;1.57;77.18;101600.47;7394410;19;20376;-57
2024/01/19 08:43:42;;;;;;;8.52;1.92;;;;;;;1.60;77.29;101596.91;7395971;19;20035;-57
2024/01/19 08:46:13;;;;;;;8.90;1.52;;;;;;;1.62;76.94;101598.59;7396111;19;20522;-58
2024/01/19 08:48:45;;;;;;;6.03;1.88;;;;;;;1.70;76.83;101601.03;7396655;19;20043;-58
2024/01/19 08:51:22;;;;;;;10.50;1.95;;;;;;;1.65;76.82;101582.88;7392523;19;20393;-57
2024/01/19 08:53:52;;;;;;;5.40;1.70;;;;;;;1.63;77.13;101600.31;7395114;19;20022;-58
2024/01/19 08:56:23;;;;;;;7.70;1.60;;;;;;;1.67;76.99;101601.09;7394919;19;20014;-59
2024/01/19 08:58:54;;;;;;;8.43;2.42;;;;;;;1.67;76.65;101603.72;7394514;19;20018;-58
2024/01/19 09:01:24;;;;;;;6.00;1.73;;;;;;;1.64;77.10;101604.66;7393667;19;20042;-59
2024/01/19 09:03:55;;;;;;;9.43;1.83;;;;;;;1.72;76.60;101614.94;7394540;19;20014;-59
2024/01/19 09:06:26;;;;;;;16.27;3.15;;;;;;;1.83;76.09;101612.94;7394687;19;20010;-57
2024/01/19 09:09:01;;;;;;;8.40;1.90;;;;;;;1.89;76.06;101628.44;7395967;19;20735;-57
2024/01/19 09:11:41;;;;;;;6.85;2.03;;;;;;;1.93;76.26;101621.38;7393039;19;20263;-58
2024/01/19 09:14:13;;;;;;;7.10;2.00;;;;;;;2.09;75.74;101630.56;7394231;19;20038;-58
2024/01/19 09:16:45;;;;;;;6.72;1.58;;;;;;;2.11;75.39;101622.72;7396292;19;20018;-55
2024/01/19 09:19:15;;;;;;;10.13;2.20;;;;;;;2.11;75.31;101628.78;7394232;19;20380;-60
2024/01/19 09:21:47;;;;;;;10.48;2.40;;;;;;;2.09;75.35;101627.94;7392426;19;20101;-57
2024/01/19 09:24:18;;;;;;;9.23;2.53;;;;;;;2.10;75.52;101631.41;7393547;19;20055;-57
2024/01/19 09:26:49;;;;;;;6.15;2.55;;;;;;;2.14;75.29;101631.31;7393804;19;20022;-58
2024/01/19 09:29:20;;;;;;;12.27;2.65;;;;;;;2.18;75.12;101619.91;7393858;19;20022;-56
2024/01/19 09:31:53;;;;;;;13.45;2.75;;;;;;;2.25;74.85;101635.41;7393808;19;20085;-59
2024/01/19 09:34:23;;;;;;;5.88;1.98;;;;;;;2.28;74.73;101632.72;7395221;19;20490;-59
2024/01/19 09:36:53;;;;;;;7.18;2.10;;;;;;;2.24;74.94;101636.31;7394817;19;20019;-56
2024/01/19 09:39:23;;;;;;;9.00;2.13;;;;;;;2.35;75.11;101649.97;7394543;19;20015;-58
2024/01/19 09:42:07;;;;;;;9.45;2.33;;;;;;;2.46;74.66;101649.72;7393840;19;20015;-58
2024/01/19 09:44:50;;;;;;;9.25;2.15;;;;;;;2.50;74.70;101661.78;7390174;19;20098;-58
2024/01/19 09:47:22;;;;;;;8.85;2.40;;;;;;;2.42;74.53;101664.59;7392796;19;20428;-58
2024/01/19 09:50:05;;;;;;;12.30;2.33;;;;;;;2.49;73.78;101667.94;7393470;19;20102;-57
2024/01/19 09:52:47;;;;;;;9.50;2.35;;;;;;;2.48;74.28;101674.03;7393969;19;20421;-58
2024/01/19 09:55:19;;;;;;;7.38;2.40;;;;;;;2.58;74.24;101683.38;7394650;19;20026;-56
2024/01/19 09:57:52;;;;;;;7.53;2.30;;;;;;;2.66;74.30;101684.88;7394250;19;20018;-58
2024/01/19 10:00:23;;;;;;;6.88;2.63;;;;;;;2.74;73.88;101686.44;7390964;19;20021;-59
2024/01/19 10:02:54;;;;;;;6.85;2.63;;;;;;;2.82;73.29;101687.09;7392607;19;20047;-59
2024/01/19 10:05:27;;;;;;;7.97;2.33;;;;;;;2.85;73.44;101690.50;7392620;19;20018;-59
2024/01/19 10:07:59;;;;;;;7.65;2.25;;;;;;;2.83;73.31;101696.69;7392621;19;20093;-57
2024/01/19 10:10:35;;;;;;;7.43;2.50;;;;;;;2.88;73.22;101692.19;7393260;19;20010;-58
2024/01/19 10:13:05;;;;;;;6.90;2.40;;;;;;;2.88;72.91;101685.19;7394165;19;20026;-59
2024/01/19 10:15:37;;;;;;;6.50;2.42;;;;;;;2.83;73.25;101694.06;7393841;19;20017;-58
2024/01/19 10:18:08;;;;;;;9.10;2.10;;;;;;;2.92;72.87;101691.19;7393555;19;20043;-58
2024/01/19 10:20:40;;;;;;;9.50;2.20;;;;;;;2.97;73.07;101694.53;7391374;19;20014;-57
2024/01/19 10:23:21;;;;;;;6.28;2.08;;;;;;;3.06;72.76;101682.97;7393427;19;20051;-57
2024/01/19 10:25:52;;;;;;;7.38;2.47;;;;;;;3.08;72.37;101687.25;7392986;19;20021;-57
2024/01/19 10:28:35;;;;;;;5.07;2.10;;;;;;;3.08;72.65;101692.50;7392375;19;20042;-58
2024/01/19 10:31:16;;;;;;;10.45;2.47;;;;;;;3.18;72.42;101704.44;7391151;19;20018;-58
2024/01/19 10:33:51;;;;;;;10.57;2.80;;;;;;;3.23;72.40;101699.06;7392433;19;20046;-58
2024/01/19 10:36:23;;;;;;;7.53;2.53;;;;;;;3.34;72.38;101696.16;7392475;19;20014;-58
2024/01/19 10:38:54;;;;;;;8.88;2.35;;;;;;;3.48;71.96;101694.00;7390800;19;20018;-55
2024/01/19 10:41:27;;;;;;;8.75;2.47;;;;;;;3.63;70.91;101696.16;7390232;19;20021;-58
2024/01/19 10:44:15;;;;;;;8.73;1.90;;;;;;;3.82;70.40;101695.63;7391675;19;20007;-56
2024/01/19 10:46:48;;;;;;;7.38;2.15;;;;;;;3.78;70.21;101691.38;7390713;19;20043;-58
2024/01/19 10:49:19;;;;;;;9.70;2.20;;;;;;;3.76;70.84;101701.88;7391696;19;20023;-59
2024/01/19 10:51:50;;;;;;;9.02;2.50;;;;;;;3.81;70.59;101697.34;7391575;19;20034;-59
2024/01/19 10:54:25;;;;;;;10.73;2.60;;;;;;;3.77;70.84;101702.72;7391801;19;20566;-57
2024/01/19 10:57:09;;;;;;;11.40;2.50;;;;;;;3.82;70.25;101700.84;7391474;19;20353;-59
2024/01/19 10:59:40;;;;;;;;;;;;;;;3.64;70.69;101702.25;7390153;19;20018;-58
2024/01/19 11:02:14;;;;;;;10.23;2.42;;;;;;;3.55;71.54;101702.50;7391540;19;19934;-59
2024/01/19 11:04:46;;;;;;;7.97;2.20;;;;;;;3.72;71.06;101689.78;7390227;19;20073;-57
2024/01/19 11:07:16;;;;;;;12.35;2.70;;;;;;;3.83;70.49;101685.06;7390902;19;20494;-58
2024/01/19 11:09:47;;;;;;;9.05;2.50;;;;;;;4.16;69.72;101700.66;7391000;19;20014;-57
2024/01/19 11:12:18;;;;;;;10.63;3.03;;;;;;;4.50;68.63;101710.03;7390836;19;20036;-60
2024/01/19 11:14:52;;;;;;;8.32;2.35;;;;;;;4.74;67.24;101719.72;7391457;19;20030;-59
2024/01/19 11:17:23;;;;;;;9.85;2.42;;;;;;;5.04;66.67;101719.59;7389412;19;20026;-59
2024/01/19 11:19:54;;;;;;;12.77;3.03;;;;;;;4.85;67.13;101719.38;7388244;19;20022;-58
2024/01/19 11:22:25;;;;;;;9.27;2.33;;;;;;;4.58;67.59;101708.03;7392489;19;20042;-58
2024/01/19 11:25:07;;;;;;;9.90;2.65;;;;;;;4.58;67.92;101724.63;7390885;19;20022;-56
2024/01/19 11:27:52;;;;;;;10.80;2.30;;;;;;;4.41;68.17;101716.44;7393763;19;20419;-57
2024/01/19 11:30:54;;;;;;;7.53;2.03;;;;;;;4.23;67.72;101717.03;7391492;19;20029;-58
2024/01/19 11:33:30;;;;;;;7.03;1.92;;;;;;;4.19;68.49;101712.78;7396078;19;20018;-57
2024/01/19 11:36:02;;;;;;;7.63;2.05;;;;;;;4.23;68.52;101717.88;7392029;19;20015;-57
2024/01/19 11:38:38;;;;;;;10.98;2.10;;;;;;;4.25;68.13;101721.34;7392357;19;20042;-57
2024/01/19 11:41:10;;;;;;;10.27;2.30;;;;;;;4.31;68.20;101726.41;7388710;19;20025;-58
2024/01/19 11:43:43;;;;;;;11.35;2.30;;;;;;;4.45;67.26;101728.56;7390915;19;20022;-57
2024/01/19 11:46:51;;;;;;;12.73;2.10;;;;;;;4.28;67.54;101723.88;7389180;19;20014;-60
2024/01/19 11:49:38;;;;;;;10.43;2.20;;;;;;;4.22;67.95;101721.44;7390882;19;20019;-59
2024/01/19 11:52:09;;;;;;;9.63;2.03;;;;;;;4.29;68.54;101733.44;7390418;19;20035;-58
2024/01/19 11:54:42;;;;;;;9.43;2.00;;;;;;;4.27;68.69;101729.13;7389015;19;20032;-59